createdAt,value
2019-05-07T00:01:54.974Z,101332.17
2019-05-07T00:04:22.752Z,101328.45
2019-05-07T00:06:52.797Z,101330.75
2019-05-07T00:09:23.297Z,101329.86
2019-05-07T00:11:53.378Z,101330.29
2019-05-07T00:14:23.158Z,101335.73
2019-05-07T00:16:53.451Z,101327.08
2019-05-07T00:19:23.146Z,101328.92
2019-05-07T00:21:52.790Z,101328.00
2019-05-07T00:24:22.400Z,101327.45
2019-05-07T00:26:53.208Z,101337.81
2019-05-07T00:29:22.355Z,101331.59
2019-05-07T00:31:52.328Z,101326.62
2019-05-07T00:34:22.621Z,101328.47
2019-05-07T00:37:06.757Z,101340.90
2019-05-07T00:39:47.111Z,101335.70
2019-05-07T00:42:22.175Z,101332.24
2019-05-07T00:45:14.230Z,101331.83
2019-05-07T00:47:32.806Z,101320.28
2019-05-07T00:50:05.811Z,101329.43
2019-05-07T00:52:34.752Z,101318.53
2019-05-07T00:55:03.395Z,101333.12
2019-05-07T00:57:32.449Z,101334.36
2019-05-07T01:00:02.243Z,101338.13
2019-05-07T01:02:32.339Z,101331.32
2019-05-07T01:05:03.083Z,101340.30
2019-05-07T01:07:32.476Z,101343.11
2019-05-07T01:10:02.266Z,101330.22
2019-05-07T01:12:32.831Z,101334.31
2019-05-07T01:15:02.978Z,101329.10
2019-05-07T01:17:33.472Z,101334.30
2019-05-07T01:20:03.063Z,101339.09
2019-05-07T01:22:33.062Z,101333.15
2019-05-07T01:25:02.350Z,101338.33
2019-05-07T01:27:32.254Z,101332.95
2019-05-07T01:30:02.683Z,101345.37
2019-05-07T01:32:49.684Z,101343.48
2019-05-07T01:35:42.345Z,101348.81
2019-05-07T01:38:12.322Z,101344.63
2019-05-07T01:40:42.755Z,101335.66
2019-05-07T01:43:12.297Z,101339.03
2019-05-07T01:45:48.996Z,101344.93
2019-05-07T01:48:15.384Z,101342.72
2019-05-07T01:50:44.277Z,101338.72
2019-05-07T01:53:12.991Z,101343.89
2019-05-07T01:55:42.795Z,101344.83
2019-05-07T01:58:12.599Z,101343.36
2019-05-07T02:00:42.502Z,101343.36
2019-05-07T02:03:18.434Z,101344.12
2019-05-07T02:06:02.218Z,101341.03
2019-05-07T02:09:06.118Z,101344.38
2019-05-07T02:11:39.418Z,101349.53
2019-05-07T02:14:08.402Z,101353.55
2019-05-07T02:16:37.599Z,101351.34
2019-05-07T02:19:06.227Z,101351.50
2019-05-07T02:21:34.879Z,101343.02
2019-05-07T02:24:03.527Z,101345.17
2019-05-07T02:26:32.322Z,101349.30
2019-05-07T02:29:02.753Z,101351.97
2019-05-07T02:31:33.569Z,101343.42
2019-05-07T02:34:03.082Z,101348.00
2019-05-07T02:36:33.948Z,101348.36
2019-05-07T02:39:18.166Z,101348.98
2019-05-07T02:41:47.098Z,101354.13
2019-05-07T02:44:15.728Z,101342.22
2019-05-07T02:46:58.341Z,101346.88
2019-05-07T02:49:35.891Z,101340.98
2019-05-07T02:52:14.995Z,101350.69
2019-05-07T02:55:03.963Z,101353.05
2019-05-07T02:57:33.917Z,101347.02
2019-05-07T03:00:04.571Z,101354.64
2019-05-07T03:02:33.373Z,101347.28
2019-05-07T03:05:05.320Z,101349.14
2019-05-07T03:07:33.749Z,101357.49
2019-05-07T03:10:03.571Z,101354.40
2019-05-07T03:12:33.716Z,101350.38
2019-05-07T03:15:04.453Z,101350.79
2019-05-07T03:17:33.593Z,101353.58
2019-05-07T03:20:03.977Z,101352.84
2019-05-07T03:22:33.788Z,101356.56
2019-05-07T03:25:15.561Z,101353.66
2019-05-07T03:27:44.196Z,101352.13
2019-05-07T03:30:35.550Z,101354.70
2019-05-07T03:33:07.934Z,101352.88
2019-05-07T03:35:45.913Z,101348.98
2019-05-07T03:38:13.155Z,101356.56
2019-05-07T03:40:44.526Z,101354.52
2019-05-07T03:43:13.927Z,101365.75
2019-05-07T03:45:57.842Z,101355.70
2019-05-07T03:48:27.973Z,101363.00
2019-05-07T03:50:57.215Z,101370.72
2019-05-07T03:53:26.405Z,101368.43
2019-05-07T03:55:55.412Z,101369.25
2019-05-07T03:58:24.142Z,101362.35
2019-05-07T04:00:53.755Z,101359.73
2019-05-07T04:03:24.261Z,101374.97
2019-05-07T04:05:53.612Z,101367.55
2019-05-07T04:08:23.778Z,101368.80
2019-05-07T04:10:53.955Z,101370.44
2019-05-07T04:13:24.286Z,101371.48
2019-05-07T04:15:53.533Z,101368.84
2019-05-07T04:18:23.688Z,101365.56
2019-05-07T04:20:54.021Z,101369.67
2019-05-07T04:23:23.526Z,101375.29
2019-05-07T04:26:19.036Z,101375.29
2019-05-07T04:28:53.706Z,101374.83
2019-05-07T04:31:23.001Z,101378.44
2019-05-07T04:33:53.338Z,101370.82
2019-05-07T04:36:27.364Z,101374.73
2019-05-07T04:38:56.627Z,101368.25
2019-05-07T04:41:25.823Z,101377.97
2019-05-07T04:43:54.725Z,101376.79
2019-05-07T04:46:24.319Z,101380.53
2019-05-07T04:48:53.313Z,101380.33
2019-05-07T04:51:28.836Z,101375.52
2019-05-07T04:53:57.471Z,101381.91
2019-05-07T04:56:26.111Z,101387.06
2019-05-07T04:58:55.130Z,101387.06
2019-05-07T05:01:25.411Z,101386.39
2019-05-07T05:03:54.639Z,101388.12
2019-05-07T05:06:24.354Z,101383.98
2019-05-07T05:08:56.074Z,101385.56
2019-05-07T05:11:23.826Z,101391.65
2019-05-07T05:13:53.455Z,101392.06
2019-05-07T05:16:26.705Z,101387.70
2019-05-07T05:18:56.737Z,101389.36
2019-05-07T05:21:45.806Z,101388.50
2019-05-07T05:24:19.184Z,101391.34
2019-05-07T05:26:48.061Z,101399.08
2019-05-07T05:29:17.083Z,101398.75
2019-05-07T05:31:46.032Z,101402.81
2019-05-07T05:34:15.176Z,101397.04
2019-05-07T05:36:43.814Z,101393.27
2019-05-07T05:39:13.318Z,101393.16
2019-05-07T05:41:44.779Z,101394.98
2019-05-07T05:44:19.347Z,101394.98
2019-05-07T05:46:47.974Z,101400.61
2019-05-07T05:49:16.619Z,101394.55
2019-05-07T05:51:58.650Z,101396.46
2019-05-07T05:54:42.452Z,101402.16
2019-05-07T05:57:48.579Z,101392.08
2019-05-07T06:00:43.274Z,101390.86
2019-05-07T06:03:24.659Z,101384.80
2019-05-07T06:06:07.905Z,101384.80
2019-05-07T06:08:54.194Z,101391.88
2019-05-07T06:11:42.934Z,101391.88
2019-05-07T06:14:42.309Z,101396.43
2019-05-07T06:17:24.661Z,101393.08
2019-05-07T06:20:15.194Z,101393.08
2019-05-07T06:23:06.160Z,101394.55
2019-05-07T06:25:34.805Z,101400.34
2019-05-07T06:28:03.741Z,101400.34
2019-05-07T06:30:33.811Z,101397.64
2019-05-07T06:33:02.925Z,101405.25
2019-05-07T06:35:32.462Z,101403.61
2019-05-07T06:38:02.860Z,101409.73
2019-05-07T06:40:47.552Z,101409.54
2019-05-07T06:43:33.803Z,101412.81
2019-05-07T06:46:03.051Z,101401.64
2019-05-07T06:48:42.054Z,101415.41
2019-05-07T06:51:03.133Z,101414.27
2019-05-07T06:53:33.605Z,101424.56
2019-05-07T06:56:03.178Z,101416.89
2019-05-07T06:58:57.206Z,101414.10
2019-05-07T07:01:44.223Z,101419.69
2019-05-07T07:04:22.341Z,101410.80
2019-05-07T07:07:26.256Z,101415.07
2019-05-07T07:10:02.713Z,101419.41
2019-05-07T07:12:33.109Z,101408.42
2019-05-07T07:15:02.732Z,101408.91
2019-05-07T07:17:32.761Z,101419.20
2019-05-07T07:20:02.309Z,101405.71
2019-05-07T07:22:31.981Z,101422.70
2019-05-07T07:25:02.881Z,101415.63
2019-05-07T07:27:32.221Z,101422.38
2019-05-07T07:30:13.680Z,101418.20
2019-05-07T07:32:45.258Z,101421.03
2019-05-07T07:35:15.601Z,101421.22
2019-05-07T07:37:44.321Z,101421.13
2019-05-07T07:40:32.714Z,101417.84
2019-05-07T07:43:04.902Z,101417.84
2019-05-07T07:45:32.655Z,101419.56
2019-05-07T07:48:02.233Z,101420.05
2019-05-07T07:50:33.011Z,101420.05
2019-05-07T07:53:02.620Z,101436.34
2019-05-07T07:55:37.551Z,101422.22
2019-05-07T07:58:24.450Z,101422.22
2019-05-07T08:01:02.850Z,101422.87
2019-05-07T08:03:32.960Z,101421.95
2019-05-07T08:06:02.258Z,101414.38
2019-05-07T08:08:31.998Z,101425.02
2019-05-07T08:11:02.404Z,101425.02
2019-05-07T08:13:32.494Z,101432.31
2019-05-07T08:16:02.519Z,101415.32
2019-05-07T08:18:32.807Z,101424.36
2019-05-07T08:21:02.563Z,101425.70
2019-05-07T08:23:32.046Z,101426.72
2019-05-07T08:26:02.509Z,101409.30
2019-05-07T08:28:32.023Z,101430.78
2019-05-07T08:31:26.431Z,101423.48
2019-05-07T08:34:02.159Z,101419.21
2019-05-07T08:36:33.153Z,101419.21
2019-05-07T08:39:02.649Z,101438.30
2019-05-07T08:41:32.019Z,101408.73
2019-05-07T08:44:15.483Z,101423.90
2019-05-07T08:47:03.800Z,101410.23
2019-05-07T08:49:39.380Z,101423.27
2019-05-07T08:52:03.967Z,101419.78
2019-05-07T08:54:34.375Z,101411.41
2019-05-07T08:57:03.460Z,101414.66
2019-05-07T08:59:33.494Z,101416.81
2019-05-07T09:02:03.117Z,101420.59
2019-05-07T09:04:32.896Z,101422.04
2019-05-07T09:07:02.615Z,101419.41
2019-05-07T09:09:32.623Z,101422.04
2019-05-07T09:12:02.981Z,101419.46
2019-05-07T09:14:32.332Z,101421.56
2019-05-07T09:17:02.500Z,101428.84
2019-05-07T09:19:32.418Z,101423.84
2019-05-07T09:22:02.288Z,101429.69
2019-05-07T09:24:33.383Z,101424.02
2019-05-07T09:27:12.043Z,101425.98
2019-05-07T09:29:56.085Z,101426.53
2019-05-07T09:32:33.394Z,101424.29
2019-05-07T09:35:02.459Z,101420.27
2019-05-07T09:37:32.705Z,101441.22
2019-05-07T09:40:02.861Z,101435.77
2019-05-07T09:42:33.271Z,101426.83
2019-05-07T09:45:02.590Z,101433.52
2019-05-07T09:47:32.495Z,101418.73
2019-05-07T09:50:05.560Z,101420.81
2019-05-07T09:52:32.842Z,101428.30
2019-05-07T09:55:11.051Z,101427.30
2019-05-07T09:57:34.666Z,101428.51
2019-05-07T10:00:03.339Z,101420.06
2019-05-07T10:02:32.306Z,101424.58
2019-05-07T10:05:02.376Z,101417.11
2019-05-07T10:07:32.472Z,101407.19
2019-05-07T10:10:03.262Z,101426.86
2019-05-07T10:12:42.059Z,101421.83
2019-05-07T10:15:12.304Z,101430.83
2019-05-07T10:17:46.992Z,101414.02
2019-05-07T10:20:22.085Z,101413.02
2019-05-07T10:22:47.936Z,101409.87
2019-05-07T10:25:16.882Z,101407.03
2019-05-07T10:27:45.606Z,101432.69
2019-05-07T10:30:14.978Z,101411.24
2019-05-07T10:32:43.612Z,101414.73
2019-05-07T10:35:12.960Z,101419.23
2019-05-07T10:37:42.528Z,101414.22
2019-05-07T10:40:12.358Z,101405.30
2019-05-07T10:42:43.045Z,101401.17
2019-05-07T10:45:29.382Z,101399.09
2019-05-07T10:48:17.034Z,101415.02
2019-05-07T10:50:47.898Z,101400.98
2019-05-07T10:53:16.799Z,101402.03
2019-05-07T10:55:45.786Z,101409.55
2019-05-07T10:58:14.529Z,101404.58
2019-05-07T11:00:43.567Z,101399.58
2019-05-07T11:03:12.771Z,101412.30
2019-05-07T11:05:42.067Z,101390.09
2019-05-07T11:08:10.832Z,101403.25
2019-05-07T11:10:41.711Z,101392.88
2019-05-07T11:13:12.742Z,101400.69
2019-05-07T11:15:42.963Z,101390.39
2019-05-07T11:18:27.312Z,101403.43
2019-05-07T11:20:56.510Z,101405.17
2019-05-07T11:23:25.107Z,101429.94
2019-05-07T11:25:53.847Z,101412.81
2019-05-07T11:28:22.829Z,101416.40
2019-05-07T11:30:51.489Z,101424.39
2019-05-07T11:33:22.035Z,101407.48
2019-05-07T11:35:52.626Z,101415.53
2019-05-07T11:38:24.578Z,101414.95
2019-05-07T11:40:51.890Z,101416.43
2019-05-07T11:43:27.903Z,101422.25
2019-05-07T11:46:07.160Z,101425.80
2019-05-07T11:48:40.013Z,101410.86
2019-05-07T11:51:23.101Z,101418.80
2019-05-07T11:54:12.366Z,101417.48
2019-05-07T11:56:42.287Z,101408.94
2019-05-07T11:59:13.417Z,101411.99
2019-05-07T12:01:47.818Z,101407.70
2019-05-07T12:04:15.602Z,101406.18
2019-05-07T12:06:44.287Z,101403.77
2019-05-07T12:09:13.027Z,101403.15
2019-05-07T12:11:42.542Z,101407.98
2019-05-07T12:14:12.310Z,101405.97
2019-05-07T12:16:42.648Z,101406.07
2019-05-07T12:19:12.670Z,101404.77
2019-05-07T12:21:42.501Z,101407.64
2019-05-07T12:24:12.872Z,101409.09
2019-05-07T12:26:42.861Z,101400.56
2019-05-07T12:29:11.951Z,101402.71
2019-05-07T12:31:58.854Z,101399.51
2019-05-07T12:34:34.754Z,101404.74
2019-05-07T12:37:04.110Z,101392.06
2019-05-07T12:39:33.000Z,101382.53
2019-05-07T12:42:01.993Z,101370.33
2019-05-07T12:44:32.049Z,101374.12
2019-05-07T12:47:01.702Z,101370.80
2019-05-07T12:49:32.329Z,101371.43
2019-05-07T12:52:32.177Z,101372.86
2019-05-07T12:55:32.379Z,101384.73
2019-05-07T12:58:02.296Z,101387.62
2019-05-07T13:01:08.654Z,101378.95
2019-05-07T13:03:54.992Z,101367.69
2019-05-07T13:06:23.698Z,101361.20
2019-05-07T13:08:52.662Z,101367.67
2019-05-07T13:11:22.172Z,101360.75
2019-05-07T13:13:52.720Z,101357.62
2019-05-07T13:16:22.046Z,101363.23
2019-05-07T13:18:52.598Z,101372.27
2019-05-07T13:21:22.570Z,101381.39
2019-05-07T13:23:52.102Z,101376.55
2019-05-07T13:26:24.348Z,101369.41
2019-05-07T13:28:53.102Z,101365.19
2019-05-07T13:31:22.836Z,101364.14
2019-05-07T13:33:52.368Z,101361.38
2019-05-07T13:36:22.051Z,101368.67
2019-05-07T13:39:02.462Z,101366.83
2019-05-07T13:41:51.834Z,101367.45
2019-05-07T13:44:32.912Z,101363.96
2019-05-07T13:47:21.828Z,101379.87
2019-05-07T13:49:53.570Z,101370.70
2019-05-07T13:52:22.146Z,101382.09
2019-05-07T13:54:52.614Z,101369.62
2019-05-07T13:57:22.667Z,101384.82
2019-05-07T13:59:53.012Z,101368.33
2019-05-07T14:02:23.682Z,101365.05
2019-05-07T14:04:52.808Z,101363.80
2019-05-07T14:07:21.912Z,101372.45
2019-05-07T14:09:52.501Z,101361.16
2019-05-07T14:12:23.001Z,101348.50
2019-05-07T14:14:52.996Z,101356.27
2019-05-07T14:17:22.070Z,101359.65
2019-05-07T14:19:52.845Z,101352.80
2019-05-07T14:22:22.601Z,101355.55
2019-05-07T14:24:53.034Z,101348.02
2019-05-07T14:27:21.966Z,101346.09
2019-05-07T14:29:52.032Z,101345.94
2019-05-07T14:32:46.294Z,101342.22
2019-05-07T14:35:33.108Z,101337.12
2019-05-07T14:38:05.963Z,101337.64
2019-05-07T14:40:34.748Z,101328.10
2019-05-07T14:43:12.570Z,101322.88
2019-05-07T14:45:42.132Z,101330.25
2019-05-07T14:48:12.300Z,101329.77
2019-05-07T14:50:42.358Z,101329.80
2019-05-07T14:53:12.080Z,101335.27
2019-05-07T14:55:41.857Z,101331.83
2019-05-07T14:58:12.364Z,101326.20
2019-05-07T15:00:42.711Z,101327.75
2019-05-07T15:03:12.472Z,101326.77
2019-05-07T15:05:42.287Z,101319.53
2019-05-07T15:08:14.151Z,101323.05
2019-05-07T15:10:42.262Z,101319.33
2019-05-07T15:13:12.740Z,101324.67
2019-05-07T15:15:41.853Z,101326.46
2019-05-07T15:18:19.895Z,101320.88
2019-05-07T15:20:48.779Z,101324.06
2019-05-07T15:23:25.763Z,101320.29
2019-05-07T15:25:54.445Z,101314.38
2019-05-07T15:28:23.454Z,101315.80
2019-05-07T15:31:04.400Z,101315.31
2019-05-07T15:33:33.018Z,101314.34
2019-05-07T15:36:02.847Z,101306.92
2019-05-07T15:38:32.531Z,101308.89
2019-05-07T15:41:02.259Z,101311.52
2019-05-07T15:43:32.316Z,101310.23
2019-05-07T15:46:02.106Z,101324.11
2019-05-07T15:48:32.687Z,101310.05
2019-05-07T15:51:01.793Z,101304.44
2019-05-07T15:53:45.338Z,101308.69
2019-05-07T15:56:14.423Z,101301.52
2019-05-07T15:58:43.026Z,101296.28
2019-05-07T16:01:12.807Z,101302.39
2019-05-07T16:03:43.306Z,101295.86
2019-05-07T16:06:12.697Z,101296.73
2019-05-07T16:08:49.363Z,101295.83
2019-05-07T16:11:19.034Z,101296.21
2019-05-07T16:14:09.029Z,101292.70
2019-05-07T16:16:42.786Z,101290.00
2019-05-07T16:19:15.426Z,101291.59
2019-05-07T16:21:44.507Z,101283.38
2019-05-07T16:24:13.168Z,101286.66
2019-05-07T16:26:42.098Z,101294.84
2019-05-07T16:29:13.235Z,101292.31
2019-05-07T16:31:44.279Z,101294.82
2019-05-07T16:34:13.312Z,101294.41
2019-05-07T16:36:42.228Z,101298.66
2019-05-07T16:39:12.136Z,101299.13
2019-05-07T16:41:42.347Z,101299.44
2019-05-07T16:44:12.227Z,101301.16
2019-05-07T16:46:42.229Z,101300.55
2019-05-07T16:49:12.009Z,101311.48
2019-05-07T16:51:44.584Z,101318.97
2019-05-07T16:54:12.392Z,101321.23
2019-05-07T16:57:00.288Z,101326.46
2019-05-07T16:59:28.915Z,101313.92
2019-05-07T17:02:02.675Z,101299.09
2019-05-07T17:04:32.023Z,101292.55
2019-05-07T17:07:02.550Z,101283.77
2019-05-07T17:09:32.248Z,101286.61
2019-05-07T17:12:03.871Z,101276.69
2019-05-07T17:14:33.101Z,101284.10
2019-05-07T17:17:02.514Z,101278.61
2019-05-07T17:19:32.076Z,101286.91
2019-05-07T17:22:02.835Z,101285.55
2019-05-07T17:24:33.020Z,101280.41
2019-05-07T17:27:02.360Z,101286.17
2019-05-07T17:29:32.171Z,101284.11
2019-05-07T17:32:01.723Z,101291.06
2019-05-07T17:34:31.295Z,101287.16
2019-05-07T17:37:02.019Z,101290.66
2019-05-07T17:39:32.182Z,101285.41
2019-05-07T17:42:02.524Z,101288.88
2019-05-07T17:44:32.346Z,101291.05
2019-05-07T17:47:02.056Z,101292.73
2019-05-07T17:49:32.797Z,101287.10
2019-05-07T17:52:02.932Z,101289.69
2019-05-07T17:54:31.964Z,101289.62
2019-05-07T17:57:01.973Z,101296.56
2019-05-07T17:59:32.135Z,101288.70
2019-05-07T18:02:10.049Z,101291.26
2019-05-07T18:04:50.488Z,101295.02
2019-05-07T18:07:12.005Z,101282.61
2019-05-07T18:09:42.467Z,101286.77
2019-05-07T18:12:12.082Z,101283.59
2019-05-07T18:14:42.362Z,101279.34
2019-05-07T18:17:41.919Z,101281.66
2019-05-07T18:20:12.716Z,101281.11
2019-05-07T18:22:40.854Z,101279.75
2019-05-07T18:25:09.965Z,101278.13
2019-05-07T18:27:38.834Z,101274.96
2019-05-07T18:30:07.834Z,101277.41
2019-05-07T18:32:42.638Z,101274.32
2019-05-07T18:35:12.630Z,101278.41
2019-05-07T18:37:54.046Z,101274.84
2019-05-07T18:40:22.859Z,101281.55
2019-05-07T18:42:52.532Z,101283.53
2019-05-07T18:45:21.995Z,101282.81
2019-05-07T18:47:51.772Z,101285.41
2019-05-07T18:50:22.533Z,101285.66
2019-05-07T18:52:52.318Z,101289.55
2019-05-07T18:55:22.682Z,101289.55
2019-05-07T18:57:51.896Z,101286.93
2019-05-07T19:00:27.254Z,101288.06
2019-05-07T19:02:56.191Z,101291.97
2019-05-07T19:05:25.199Z,101289.69
2019-05-07T19:08:04.258Z,101291.72
2019-05-07T19:10:24.704Z,101292.96
2019-05-07T19:12:53.763Z,101292.88
2019-05-07T19:15:22.501Z,101293.61
2019-05-07T19:17:51.546Z,101291.66
2019-05-07T19:20:21.817Z,101287.70
2019-05-07T19:22:51.835Z,101295.50
2019-05-07T19:25:21.126Z,101293.33
2019-05-07T19:27:50.020Z,101293.16
2019-05-07T19:30:19.337Z,101299.53
2019-05-07T19:32:48.312Z,101298.42
2019-05-07T19:35:17.417Z,101301.39
2019-05-07T19:37:46.311Z,101301.55
2019-05-07T19:40:15.001Z,101300.12
2019-05-07T19:42:43.984Z,101297.52
2019-05-07T19:45:12.885Z,101298.23
2019-05-07T19:47:42.776Z,101303.11
2019-05-07T19:50:12.537Z,101302.09
2019-05-07T19:52:42.631Z,101293.37
2019-05-07T19:55:12.018Z,101304.27
2019-05-07T19:57:46.651Z,101298.52
2019-05-07T20:00:17.177Z,101301.28
2019-05-07T20:02:48.397Z,101305.47
2019-05-07T20:05:17.415Z,101301.42
2019-05-07T20:07:46.408Z,101303.05
2019-05-07T20:10:19.293Z,101301.60
2019-05-07T20:12:48.299Z,101302.02
2019-05-07T20:15:17.601Z,101302.32
2019-05-07T20:17:46.480Z,101303.31
2019-05-07T20:20:17.450Z,101294.65
2019-05-07T20:22:45.857Z,101296.88
2019-05-07T20:25:18.977Z,101300.67
2019-05-07T20:27:45.635Z,101292.36
2019-05-07T20:30:14.342Z,101300.03
2019-05-07T20:32:42.994Z,101297.39
2019-05-07T20:35:11.721Z,101300.42
2019-05-07T20:37:41.931Z,101294.20
2019-05-07T20:40:12.227Z,101297.95
2019-05-07T20:42:42.835Z,101292.62
2019-05-07T20:45:12.328Z,101284.63
2019-05-07T20:47:42.114Z,101284.63
2019-05-07T20:50:12.753Z,101283.80
2019-05-07T20:52:41.988Z,101284.75
2019-05-07T20:55:33.221Z,101279.31
2019-05-07T20:57:59.985Z,101279.62
2019-05-07T21:00:29.514Z,101275.05
2019-05-07T21:03:16.022Z,101273.48
2019-05-07T21:05:44.724Z,101274.22
2019-05-07T21:08:13.353Z,101268.10
2019-05-07T21:10:42.815Z,101268.14
2019-05-07T21:13:26.802Z,101263.56
2019-05-07T21:15:42.420Z,101275.65
2019-05-07T21:18:12.369Z,101262.66
2019-05-07T21:20:42.227Z,101262.66
2019-05-07T21:23:12.217Z,101260.73
2019-05-07T21:25:45.502Z,101265.91
2019-05-07T21:28:12.335Z,101262.72
2019-05-07T21:30:42.693Z,101255.73
2019-05-07T21:33:12.146Z,101251.23
2019-05-07T21:35:42.865Z,101241.03
2019-05-07T21:38:12.693Z,101242.18
2019-05-07T21:40:42.891Z,101240.48
2019-05-07T21:43:14.219Z,101240.48
2019-05-07T21:45:43.105Z,101242.50
2019-05-07T21:48:13.748Z,101238.41
2019-05-07T21:50:42.536Z,101229.03
2019-05-07T21:53:29.004Z,101234.07
2019-05-07T21:56:08.475Z,101234.07
2019-05-07T21:58:44.366Z,101229.16
2019-05-07T22:01:16.818Z,101229.16
2019-05-07T22:03:47.685Z,101229.28
2019-05-07T22:06:16.318Z,101223.65
2019-05-07T22:08:45.213Z,101223.65
2019-05-07T22:11:13.928Z,101229.02
2019-05-07T22:13:43.637Z,101228.67
2019-05-07T22:16:13.274Z,101228.67
2019-05-07T22:18:42.660Z,101234.28
2019-05-07T22:21:12.429Z,101234.28
2019-05-07T22:23:42.811Z,101235.20
2019-05-07T22:26:20.281Z,101228.14
2019-05-07T22:28:43.006Z,101228.97
2019-05-07T22:31:23.142Z,101221.41
2019-05-07T22:33:59.398Z,101219.73
2019-05-07T22:36:28.619Z,101213.59
2019-05-07T22:38:57.265Z,101214.93
2019-05-07T22:41:26.196Z,101214.93
2019-05-07T22:43:55.134Z,101213.23
2019-05-07T22:46:23.791Z,101213.23
2019-05-07T22:48:52.426Z,101205.12
2019-05-07T22:51:22.818Z,101205.12
2019-05-07T22:53:51.882Z,101207.61
2019-05-07T22:56:33.864Z,101195.50
2019-05-07T22:58:53.283Z,101195.50
2019-05-07T23:01:22.727Z,101197.04
2019-05-07T23:03:53.975Z,101188.76
2019-05-07T23:06:23.118Z,101193.83
2019-05-07T23:08:52.875Z,101194.88
2019-05-07T23:11:22.843Z,101188.39
2019-05-07T23:13:54.771Z,101191.84
2019-05-07T23:16:23.279Z,101196.33
2019-05-07T23:18:52.115Z,101184.82
2019-05-07T23:21:24.317Z,101190.39
2019-05-07T23:23:52.774Z,101185.19
2019-05-07T23:26:23.332Z,101187.77
2019-05-07T23:28:52.851Z,101177.55
2019-05-07T23:31:22.858Z,101180.49
2019-05-07T23:33:52.457Z,101174.22
2019-05-07T23:36:22.416Z,101162.45
2019-05-07T23:38:52.308Z,101170.05
2019-05-07T23:41:30.288Z,101164.30
2019-05-07T23:44:16.423Z,101164.92
2019-05-07T23:46:45.463Z,101164.83
2019-05-07T23:49:14.170Z,101158.10
2019-05-07T23:51:42.886Z,101163.63
2019-05-07T23:54:12.315Z,101154.53
2019-05-07T23:56:42.745Z,101153.11
2019-05-07T23:59:12.759Z,101146.34
